MGPB

Puerto Barrios Airport

Puerto Barrios, Guatemala
MGPB 141700Z 1418/1518 36008KT 9999 SCT020 TX31/1420Z TN20/1512Z BECMG 1501/1503 00000KT CAVOK BECMG 1506/1508 33008KT SCT016 TEMPO 1508/1518 8000 -RADZ BKN014 OVC080
Issued Valid From Valid To
Dec-14 @ 17:00 UTC
(5 hours ago)
Dec-14 @ 18:00 UTC
(4 hours ago)
Dec-15 @ 18:00 UTC
(in 20 hours)
Dec-14 @ 18:00 to Dec-15 @ 01:00
MGPB 141700Z 1418/1518 36008KT 9999 SCT020 TX31/1420Z TN20/1512Z
Wind Visibility Clouds
360° at 8 knots 10,000+ meters
  • Scattered at 2,000' AGL
Becoming Dec-15 @ 01:00 to Dec-15 @ 06:00
BECMG 1501/1503 00000KT CAVOK
Visibility Clouds Conditions
10,000+ meters
  • No significant clouds
Becoming Dec-15 @ 06:00 to Dec-15 @ 18:00
BECMG 1506/1508 33008KT SCT016
Wind Visibility Clouds Conditions
330° at 8 knots 10,000+ meters
  • Scattered at 1,600' AGL
Temporary Dec-15 @ 08:00 to Dec-15 @ 18:00
TEMPO 1508/1518 8000 -RADZ BKN014 OVC080
Visibility Clouds Conditions
7,998 meters
  • Broken at 1,400' AGL
  • Overcast at 8,000' AGL
  • Light Rain
  • Light Drizzle
MGPB 141700Z 1418/1518 36008KT 9999 SCT020 TX31/1420Z TN20/1512Z BECMG 1501/1503 00000KT CAVOK BECMG 1506/1508 33008KT SCT016 TEMPO 1508/1518 8000 -RADZ BKN014 OVC080
Issued Dec-14 @ 17:00 UTC
(5 hours ago)
Valid From Dec-14 @ 18:00 UTC
(4 hours ago)
Valid To Dec-15 @ 18:00 UTC
(in 20 hours)
Dec-14 @ 18:00 - Dec-15 @ 01:00
Wind Visibility
360° at 8 knots 10,000+ meters
Clouds
  • Scattered at 2,000' AGL
Becoming Dec-15 @ 01:00 - Dec-15 @ 06:00
Clouds
  • No significant clouds
Conditions
Becoming Dec-15 @ 06:00 - Dec-15 @ 18:00
Wind Visibility
330° at 8 knots 10,000+ meters
Clouds
  • Scattered at 1,600' AGL
Conditions
Temporary Dec-15 @ 08:00 - Dec-15 @ 18:00
Clouds
  • Broken at 1,400' AGL
  • Overcast at 8,000' AGL
Conditions
  • Light Rain
  • Light Drizzle